Rechercher aéroport 
image banner adimage banner adimage banner ad
image banner ad

CL15 - Sce Ridgecrest Service Center

Situé à Ridgecrest, United States

ICAO - CL15, IATA -

Données fournies par Airmate  

Information générale

Coordonnées: N35°36'53" W117°40'6"
Élévation : 2288 feet MSL.
Variation magnétique : 14° East
Voir autres Aéroports à California

Données opérationnelles

Special qualification required
Heure actuelle UTC:
Heure actuelle locale:
METAR: KNID 231356Z 20006KT 2 1/2SM HZ BKN055 19/M01 A2995 RMK AO2 SLP121 FU BKN055 MTNS OBSCRD FU/HZ ALQDS T01891011 $
TAF: TAF AMD KNID 2305/2323 22007KT 9999 BKN050 QNH2993INS FU BKN050 FU ALQDS BECMG 2313/2315 VRB05KT 6000 FU HZ BKN050 QNH2995INS FU BKN050 MTNS OBSCRD SW-NE BECMG 2315/2317 03007KT 8000 FU HZ SCT050 QNH2989INS FU BKN050 MTNS OBSCRD SW-N TEMPO 2317/2323 VRB05KT 6000 FU HZ BKN050 FU BKN050 LAST NO AMD AFT 2306/ NEXT 2315 T16/2313Z T36/2323Z AMD 0502
Voir NOTAMs / SUP AIP / TFR affectant cet aéroport [VIEW]
Fréquences de communication: [VIEW]

Pistes:

Coordonnées de l'aéroport

Adresse: Ridgecrest United States

Vue satellite de CL15